sensor_id;sensor_type;location;lat;lon;timestamp;pressure;altitude;pressure_sealevel;temperature;humidity
71043;BME280;58696;52.134;5.500;2023-05-02T00:02:27;102141.56;;;10.41;89.12
71043;BME280;58696;52.134;5.500;2023-05-02T00:04:56;102138.69;;;10.44;89.04
71043;BME280;58696;52.134;5.500;2023-05-02T00:07:25;102137.06;;;10.43;89.10
71043;BME280;58696;52.134;5.500;2023-05-02T00:09:52;102149.47;;;10.47;88.89
71043;BME280;58696;52.134;5.500;2023-05-02T00:12:18;102145.00;;;10.49;89.05
71043;BME280;58696;52.134;5.500;2023-05-02T00:14:47;102146.47;;;10.52;88.89
71043;BME280;58696;52.134;5.500;2023-05-02T00:17:17;102150.16;;;10.49;88.94
71043;BME280;58696;52.134;5.500;2023-05-02T00:19:45;102145.00;;;10.49;88.67
71043;BME280;58696;52.134;5.500;2023-05-02T00:22:14;102148.38;;;10.50;88.84
71043;BME280;58696;52.134;5.500;2023-05-02T00:24:40;102147.41;;;10.51;88.68
71043;BME280;58696;52.134;5.500;2023-05-02T00:27:07;102148.50;;;10.48;88.50
71043;BME280;58696;52.134;5.500;2023-05-02T00:29:36;102148.22;;;10.51;88.69
71043;BME280;58696;52.134;5.500;2023-05-02T00:32:02;102152.25;;;10.54;88.41
71043;BME280;58696;52.134;5.500;2023-05-02T00:34:29;102154.97;;;10.52;88.43
71043;BME280;58696;52.134;5.500;2023-05-02T00:36:56;102151.97;;;10.57;88.28
71043;BME280;58696;52.134;5.500;2023-05-02T00:39:23;102147.78;;;10.56;88.33
71043;BME280;58696;52.134;5.500;2023-05-02T00:41:59;102144.53;;;10.54;88.45
71043;BME280;58696;52.134;5.500;2023-05-02T00:44:26;102145.34;;;10.54;88.69
71043;BME280;58696;52.134;5.500;2023-05-02T00:46:54;102142.13;;;10.52;88.97
71043;BME280;58696;52.134;5.500;2023-05-02T00:49:21;102151.44;;;10.53;89.03
71043;BME280;58696;52.134;5.500;2023-05-02T00:51:50;102151.31;;;10.55;89.08
71043;BME280;58696;52.134;5.500;2023-05-02T00:54:17;102159.03;;;10.55;89.44
71043;BME280;58696;52.134;5.500;2023-05-02T00:56:43;102164.44;;;10.52;89.53
71043;BME280;58696;52.134;5.500;2023-05-02T00:59:10;102162.03;;;10.50;89.78
71043;BME280;58696;52.134;5.500;2023-05-02T01:02:56;102166.38;;;10.50;89.99
71043;BME280;58696;52.134;5.500;2023-05-02T01:05:32;102168.94;;;10.50;90.04
71043;BME280;58696;52.134;5.500;2023-05-02T01:10:38;102178.41;;;10.49;90.48
71043;BME280;58696;52.134;5.500;2023-05-02T01:15:47;102174.88;;;10.50;90.54
71043;BME280;58696;52.134;5.500;2023-05-02T01:18:15;102172.31;;;10.50;90.70
71043;BME280;58696;52.134;5.500;2023-05-02T01:20:45;102170.72;;;10.49;90.59
71043;BME280;58696;52.134;5.500;2023-05-02T01:26:33;102178.06;;;10.44;91.24
71043;BME280;58696;52.134;5.500;2023-05-02T01:29:07;102180.38;;;10.38;91.30
71043;BME280;58696;52.134;5.500;2023-05-02T01:31:41;102181.13;;;10.30;91.22
71043;BME280;58696;52.134;5.500;2023-05-02T01:34:11;102188.19;;;10.28;91.45
71043;BME280;58696;52.134;5.500;2023-05-02T01:36:42;102192.78;;;10.24;91.06
71043;BME280;58696;52.134;5.500;2023-05-02T01:39:13;102192.53;;;10.18;90.46
71043;BME280;58696;52.134;5.500;2023-05-02T01:41:45;102195.56;;;10.13;90.67
71043;BME280;58696;52.134;5.500;2023-05-02T01:44:14;102200.69;;;10.13;90.59
71043;BME280;58696;52.134;5.500;2023-05-02T01:46:43;102201.28;;;10.07;89.81
71043;BME280;58696;52.134;5.500;2023-05-02T01:49:10;102207.22;;;10.08;89.68
71043;BME280;58696;52.134;5.500;2023-05-02T01:51:43;102208.28;;;10.05;89.41
71043;BME280;58696;52.134;5.500;2023-05-02T01:54:12;102219.03;;;10.00;89.19
71043;BME280;58696;52.134;5.500;2023-05-02T01:56:41;102225.91;;;10.00;89.15
71043;BME280;58696;52.134;5.500;2023-05-02T01:59:14;102235.66;;;9.96;89.09
71043;BME280;58696;52.134;5.500;2023-05-02T02:01:49;102233.53;;;9.92;88.33
71043;BME280;58696;52.134;5.500;2023-05-02T02:04:20;102238.69;;;9.82;87.88
71043;BME280;58696;52.134;5.500;2023-05-02T02:06:59;102245.91;;;9.79;87.72
71043;BME280;58696;52.134;5.500;2023-05-02T02:09:30;102240.06;;;9.77;87.07
71043;BME280;58696;52.134;5.500;2023-05-02T02:14:42;102241.19;;;9.74;86.90
71043;BME280;58696;52.134;5.500;2023-05-02T02:17:23;102237.13;;;9.71;86.81
71043;BME280;58696;52.134;5.500;2023-05-02T02:19:54;102243.88;;;9.72;86.87
71043;BME280;58696;52.134;5.500;2023-05-02T02:22:30;102248.88;;;9.74;86.84
71043;BME280;58696;52.134;5.500;2023-05-02T02:25:00;102250.75;;;9.72;86.40
71043;BME280;58696;52.134;5.500;2023-05-02T02:27:28;102257.66;;;9.71;86.22
71043;BME280;58696;52.134;5.500;2023-05-02T02:29:55;102261.19;;;9.70;86.08
71043;BME280;58696;52.134;5.500;2023-05-02T02:32:24;102263.91;;;9.69;85.68
71043;BME280;58696;52.134;5.500;2023-05-02T02:34:53;102263.34;;;9.65;85.98
71043;BME280;58696;52.134;5.500;2023-05-02T02:37:30;102272.81;;;9.65;86.02
71043;BME280;58696;52.134;5.500;2023-05-02T02:40:24;102270.41;;;9.63;85.44
71043;BME280;58696;52.134;5.500;2023-05-02T02:46:21;102277.28;;;9.63;84.54
71043;BME280;58696;52.134;5.500;2023-05-02T02:51:32;102278.91;;;9.64;84.44
71043;BME280;58696;52.134;5.500;2023-05-02T02:57:02;102285.41;;;9.58;83.76
71043;BME280;58696;52.134;5.500;2023-05-02T02:59:37;102288.53;;;9.52;83.03
71043;BME280;58696;52.134;5.500;2023-05-02T03:02:08;102292.03;;;9.51;82.89
71043;BME280;58696;52.134;5.500;2023-05-02T03:04:40;102299.88;;;9.49;82.62
71043;BME280;58696;52.134;5.500;2023-05-02T03:07:13;102297.31;;;9.49;82.74
71043;BME280;58696;52.134;5.500;2023-05-02T03:09:46;102304.84;;;9.51;82.72
71043;BME280;58696;52.134;5.500;2023-05-02T03:12:13;102304.19;;;9.49;82.70
71043;BME280;58696;52.134;5.500;2023-05-02T03:14:40;102306.09;;;9.47;82.28
71043;BME280;58696;52.134;5.500;2023-05-02T03:17:07;102312.03;;;9.47;82.63
71043;BME280;58696;52.134;5.500;2023-05-02T03:19:38;102308.53;;;9.48;82.73
71043;BME280;58696;52.134;5.500;2023-05-02T03:22:09;102310.81;;;9.52;82.46
71043;BME280;58696;52.134;5.500;2023-05-02T03:24:36;102319.34;;;9.52;82.36
71043;BME280;58696;52.134;5.500;2023-05-02T03:27:03;102316.06;;;9.50;82.26
71043;BME280;58696;52.134;5.500;2023-05-02T03:29:29;102321.22;;;9.50;81.90
71043;BME280;58696;52.134;5.500;2023-05-02T03:32:01;102319.59;;;9.49;82.11
71043;BME280;58696;52.134;5.500;2023-05-02T03:34:27;102323.91;;;9.48;82.34
71043;BME280;58696;52.134;5.500;2023-05-02T03:36:54;102326.63;;;9.47;82.02
71043;BME280;58696;52.134;5.500;2023-05-02T03:39:20;102333.78;;;9.43;81.98
71043;BME280;58696;52.134;5.500;2023-05-02T03:41:47;102337.16;;;9.44;82.45
71043;BME280;58696;52.134;5.500;2023-05-02T03:44:18;102338.78;;;9.45;81.76
71043;BME280;58696;52.134;5.500;2023-05-02T03:46:47;102343.09;;;9.44;81.78
71043;BME280;58696;52.134;5.500;2023-05-02T03:49:16;102339.59;;;9.45;82.08
71043;BME280;58696;52.134;5.500;2023-05-02T03:51:47;102343.78;;;9.46;81.84
71043;BME280;58696;52.134;5.500;2023-05-02T03:54:18;102346.47;;;9.45;81.95
71043;BME280;58696;52.134;5.500;2023-05-02T03:56:45;102345.81;;;9.43;81.62
71043;BME280;58696;52.134;5.500;2023-05-02T03:59:15;102352.31;;;9.37;81.73
71043;BME280;58696;52.134;5.500;2023-05-02T04:01:44;102352.56;;;9.34;81.68
71043;BME280;58696;52.134;5.500;2023-05-02T04:04:10;102351.91;;;9.32;81.30
71043;BME280;58696;52.134;5.500;2023-05-02T04:06:37;102352.84;;;9.31;81.67
71043;BME280;58696;52.134;5.500;2023-05-02T04:09:06;102362.31;;;9.31;82.21
71043;BME280;58696;52.134;5.500;2023-05-02T04:11:35;102362.72;;;9.26;82.24
71043;BME280;58696;52.134;5.500;2023-05-02T04:14:01;102365.41;;;9.25;82.14
71043;BME280;58696;52.134;5.500;2023-05-02T04:16:33;102369.84;;;9.22;82.21
71043;BME280;58696;52.134;5.500;2023-05-02T04:19:02;102375.78;;;9.23;82.43
71043;BME280;58696;52.134;5.500;2023-05-02T04:21:28;102374.84;;;9.24;82.21
71043;BME280;58696;52.134;5.500;2023-05-02T04:23:55;102374.03;;;9.23;82.43
71043;BME280;58696;52.134;5.500;2023-05-02T04:26:21;102382.53;;;9.24;82.06
71043;BME280;58696;52.134;5.500;2023-05-02T04:28:50;102382.81;;;9.21;81.80
71043;BME280;58696;52.134;5.500;2023-05-02T04:31:17;102390.38;;;9.22;81.69
71043;BME280;58696;52.134;5.500;2023-05-02T04:33:43;102384.56;;;9.20;81.24
71043;BME280;58696;52.134;5.500;2023-05-02T04:36:15;102386.34;;;9.20;81.86
71043;BME280;58696;52.134;5.500;2023-05-02T04:38:42;102401.59;;;9.21;81.73
71043;BME280;58696;52.134;5.500;2023-05-02T04:41:08;102407.38;;;9.23;82.02
71043;BME280;58696;52.134;5.500;2023-05-02T04:43:35;102408.63;;;9.19;82.50
71043;BME280;58696;52.134;5.500;2023-05-02T04:46:04;102415.34;;;9.11;80.34
71043;BME280;58696;52.134;5.500;2023-05-02T04:48:33;102416.94;;;9.02;79.28
71043;BME280;58696;52.134;5.500;2023-05-02T04:51:02;102419.13;;;8.97;79.15
71043;BME280;58696;52.134;5.500;2023-05-02T04:53:28;102426.81;;;8.97;79.09
71043;BME280;58696;52.134;5.500;2023-05-02T04:55:57;102434.75;;;8.94;78.92
71043;BME280;58696;52.134;5.500;2023-05-02T04:58:24;102443.38;;;8.93;78.99
71043;BME280;58696;52.134;5.500;2023-05-02T05:00:53;102446.63;;;8.95;79.54
71043;BME280;58696;52.134;5.500;2023-05-02T05:03:20;102449.88;;;8.97;79.55
71043;BME280;58696;52.134;5.500;2023-05-02T05:05:47;102453.13;;;8.99;79.59
71043;BME280;58696;52.134;5.500;2023-05-02T05:08:16;102449.75;;;8.99;79.46
71043;BME280;58696;52.134;5.500;2023-05-02T05:10:42;102453.50;;;8.94;79.02
71043;BME280;58696;52.134;5.500;2023-05-02T05:13:08;102452.69;;;8.94;78.71
71043;BME280;58696;52.134;5.500;2023-05-02T05:15:37;102467.00;;;8.96;78.52
71043;BME280;58696;52.134;5.500;2023-05-02T05:18:06;102465.28;;;8.97;78.25
71043;BME280;58696;52.134;5.500;2023-05-02T05:20:35;102473.88;;;8.96;77.73
71043;BME280;58696;52.134;5.500;2023-05-02T05:23:05;102474.03;;;8.94;78.18
71043;BME280;58696;52.134;5.500;2023-05-02T05:25:31;102479.31;;;9.03;78.83
71043;BME280;58696;52.134;5.500;2023-05-02T05:27:59;102482.56;;;9.05;78.30
71043;BME280;58696;52.134;5.500;2023-05-02T05:30:28;102489.44;;;9.04;78.24
71043;BME280;58696;52.134;5.500;2023-05-02T05:32:56;102489.06;;;9.18;77.88
71043;BME280;58696;52.134;5.500;2023-05-02T05:35:26;102494.44;;;9.06;77.47
71043;BME280;58696;52.134;5.500;2023-05-02T05:37:55;102499.00;;;8.92;77.19
71043;BME280;58696;52.134;5.500;2023-05-02T05:40:24;102503.13;;;8.84;76.85
71043;BME280;58696;52.134;5.500;2023-05-02T05:42:53;102511.91;;;8.81;77.23
71043;BME280;58696;52.134;5.500;2023-05-02T05:45:22;102521.72;;;8.76;78.00
71043;BME280;58696;52.134;5.500;2023-05-02T05:47:48;102518.22;;;8.77;78.30
71043;BME280;58696;52.134;5.500;2023-05-02T05:50:15;102522.78;;;8.74;78.52
71043;BME280;58696;52.134;5.500;2023-05-02T05:52:41;102534.41;;;8.78;78.72
71043;BME280;58696;52.134;5.500;2023-05-02T05:55:13;102537.34;;;8.73;77.89
71043;BME280;58696;52.134;5.500;2023-05-02T05:57:44;102542.91;;;8.78;78.48
71043;BME280;58696;52.134;5.500;2023-05-02T06:00:11;102544.28;;;8.82;78.11
71043;BME280;58696;52.134;5.500;2023-05-02T06:02:38;102550.91;;;8.85;77.75
71043;BME280;58696;52.134;5.500;2023-05-02T06:05:07;102548.09;;;8.88;77.39
71043;BME280;58696;52.134;5.500;2023-05-02T06:07:36;102552.13;;;8.90;78.02
71043;BME280;58696;52.134;5.500;2023-05-02T06:10:03;102550.81;;;8.96;76.39
71043;BME280;58696;52.134;5.500;2023-05-02T06:12:30;102557.97;;;9.02;76.36
71043;BME280;58696;52.134;5.500;2023-05-02T06:14:58;102558.59;;;9.15;76.00
71043;BME280;58696;52.134;5.500;2023-05-02T06:17:27;102559.84;;;9.31;76.22
71043;BME280;58696;52.134;5.500;2023-05-02T06:19:54;102558.94;;;9.41;73.33
71043;BME280;58696;52.134;5.500;2023-05-02T06:22:20;102568.25;;;9.42;72.93
71043;BME280;58696;52.134;5.500;2023-05-02T06:24:49;102571.63;;;9.43;72.81
71043;BME280;58696;52.134;5.500;2023-05-02T06:27:18;102581.78;;;9.54;72.57
71043;BME280;58696;52.134;5.500;2023-05-02T06:29:45;102583.25;;;9.57;71.91
71043;BME280;58696;52.134;5.500;2023-05-02T06:32:11;102583.13;;;9.48;72.86
71043;BME280;58696;52.134;5.500;2023-05-02T06:34:40;102594.19;;;9.49;72.27
71043;BME280;58696;52.134;5.500;2023-05-02T06:37:07;102594.44;;;9.36;72.09
71043;BME280;58696;52.134;5.500;2023-05-02T06:39:33;102594.31;;;9.38;71.78
71043;BME280;58696;52.134;5.500;2023-05-02T06:42:02;102601.00;;;9.29;71.70
71043;BME280;58696;52.134;5.500;2023-05-02T06:44:29;102605.47;;;9.27;72.44
71043;BME280;58696;52.134;5.500;2023-05-02T06:46:55;102611.69;;;9.25;72.78
71043;BME280;58696;52.134;5.500;2023-05-02T06:49:22;102617.44;;;9.17;72.73
71043;BME280;58696;52.134;5.500;2023-05-02T06:51:48;102619.03;;;9.08;72.18
71043;BME280;58696;52.134;5.500;2023-05-02T06:54:17;102631.94;;;8.97;72.88
71043;BME280;58696;52.134;5.500;2023-05-02T06:56:46;102633.28;;;9.01;73.20
71043;BME280;58696;52.134;5.500;2023-05-02T06:59:13;102635.91;;;9.11;73.07
71043;BME280;58696;52.134;5.500;2023-05-02T07:01:49;102642.56;;;9.13;73.73
71043;BME280;58696;52.134;5.500;2023-05-02T07:04:16;102646.97;;;9.11;73.30
71043;BME280;58696;52.134;5.500;2023-05-02T07:06:45;102651.69;;;9.06;73.08
71043;BME280;58696;52.134;5.500;2023-05-02T07:09:12;102655.06;;;9.07;73.70
71043;BME280;58696;52.134;5.500;2023-05-02T07:11:43;102654.63;;;9.02;73.67
71043;BME280;58696;52.134;5.500;2023-05-02T07:14:14;102661.88;;;8.96;74.12
71043;BME280;58696;52.134;5.500;2023-05-02T07:16:41;102662.72;;;8.97;74.92
71043;BME280;58696;52.134;5.500;2023-05-02T07:19:07;102674.09;;;9.04;74.76
71043;BME280;58696;52.134;5.500;2023-05-02T07:21:34;102666.94;;;9.08;73.93
71043;BME280;58696;52.134;5.500;2023-05-02T07:24:02;102668.00;;;9.26;73.29
71043;BME280;58696;52.134;5.500;2023-05-02T07:26:29;102667.81;;;10.08;70.88
71043;BME280;58696;52.134;5.500;2023-05-02T07:28:55;102685.38;;;10.03;69.45
71043;BME280;58696;52.134;5.500;2023-05-02T07:31:22;102686.59;;;9.99;68.73
71043;BME280;58696;52.134;5.500;2023-05-02T07:33:48;102691.94;;;9.77;69.06
71043;BME280;58696;52.134;5.500;2023-05-02T07:36:15;102681.75;;;9.56;68.90
71043;BME280;58696;52.134;5.500;2023-05-02T07:38:44;102693.84;;;9.44;69.46
71043;BME280;58696;52.134;5.500;2023-05-02T07:41:12;102689.66;;;9.43;69.31
71043;BME280;58696;52.134;5.500;2023-05-02T07:43:39;102686.44;;;9.51;68.88
71043;BME280;58696;52.134;5.500;2023-05-02T07:46:06;102697.75;;;9.69;69.44
71043;BME280;58696;52.134;5.500;2023-05-02T07:48:35;102695.28;;;9.67;67.73
71043;BME280;58696;52.134;5.500;2023-05-02T07:51:05;102694.38;;;9.68;67.60
71043;BME280;58696;52.134;5.500;2023-05-02T07:53:32;102698.81;;;9.66;67.09
71043;BME280;58696;52.134;5.500;2023-05-02T07:56:07;102702.59;;;9.62;67.53
71043;BME280;58696;52.134;5.500;2023-05-02T07:58:37;102699.94;;;9.73;66.58
71043;BME280;58696;52.134;5.500;2023-05-02T08:01:09;102706.78;;;9.73;66.40
71043;BME280;58696;52.134;5.500;2023-05-02T08:03:35;102705.63;;;9.87;66.24
71043;BME280;58696;52.134;5.500;2023-05-02T08:06:04;102707.13;;;9.99;66.19
71043;BME280;58696;52.134;5.500;2023-05-02T08:08:31;102712.06;;;10.12;66.35
71043;BME280;58696;52.134;5.500;2023-05-02T08:10:58;102718.53;;;10.16;65.13
71043;BME280;58696;52.134;5.500;2023-05-02T08:13:26;102714.88;;;10.09;65.24
71043;BME280;58696;52.134;5.500;2023-05-02T08:15:53;102717.69;;;10.06;65.60
71043;BME280;58696;52.134;5.500;2023-05-02T08:18:26;102722.69;;;9.97;64.33
71043;BME280;58696;52.134;5.500;2023-05-02T08:20:58;102724.22;;;9.69;65.48
71043;BME280;58696;52.134;5.500;2023-05-02T08:23:27;102731.56;;;9.74;66.11
71043;BME280;58696;52.134;5.500;2023-05-02T08:25:53;102732.34;;;9.74;65.50
71043;BME280;58696;52.134;5.500;2023-05-02T08:28:20;102733.59;;;9.80;66.09
71043;BME280;58696;52.134;5.500;2023-05-02T08:30:48;102740.16;;;10.04;65.64
71043;BME280;58696;52.134;5.500;2023-05-02T08:33:15;102737.88;;;10.20;64.06
71043;BME280;58696;52.134;5.500;2023-05-02T08:35:42;102737.53;;;10.24;62.49
71043;BME280;58696;52.134;5.500;2023-05-02T08:38:08;102739.81;;;10.37;63.82
71043;BME280;58696;52.134;5.500;2023-05-02T08:40:38;102753.53;;;10.57;63.21
71043;BME280;58696;52.134;5.500;2023-05-02T08:43:10;102746.75;;;10.56;61.23
71043;BME280;58696;52.134;5.500;2023-05-02T08:45:42;102747.16;;;10.42;60.83
71043;BME280;58696;52.134;5.500;2023-05-02T08:48:12;102755.00;;;10.50;60.40
71043;BME280;58696;52.134;5.500;2023-05-02T08:50:47;102757.00;;;10.37;60.15
71043;BME280;58696;52.134;5.500;2023-05-02T08:53:15;102760.94;;;10.41;59.80
71043;BME280;58696;52.134;5.500;2023-05-02T08:55:43;102760.78;;;10.33;57.84
71043;BME280;58696;52.134;5.500;2023-05-02T08:58:09;102766.34;;;10.38;58.12
71043;BME280;58696;52.134;5.500;2023-05-02T09:00:45;102770.97;;;10.44;58.00
71043;BME280;58696;52.134;5.500;2023-05-02T09:03:20;102768.69;;;10.60;58.86
71043;BME280;58696;52.134;5.500;2023-05-02T09:05:53;102768.69;;;10.79;58.55
71043;BME280;58696;52.134;5.500;2023-05-02T09:08:25;102769.91;;;10.95;56.68
71043;BME280;58696;52.134;5.500;2023-05-02T09:10:54;102764.06;;;11.12;56.51
71043;BME280;58696;52.134;5.500;2023-05-02T09:18:37;102783.16;;;11.10;55.52
71043;BME280;58696;52.134;5.500;2023-05-02T09:21:13;102792.66;;;10.99;54.87
71043;BME280;58696;52.134;5.500;2023-05-02T09:28:52;102781.97;;;11.04;54.59
71043;BME280;58696;52.134;5.500;2023-05-02T09:31:25;102795.56;;;11.43;53.55
71043;BME280;58696;52.134;5.500;2023-05-02T09:34:16;102791.88;;;11.55;51.06
71043;BME280;58696;52.134;5.500;2023-05-02T09:36:46;102797.25;;;11.62;49.56
71043;BME280;58696;52.134;5.500;2023-05-02T09:39:17;102799.66;;;11.17;50.46
71043;BME280;58696;52.134;5.500;2023-05-02T09:41:49;102804.28;;;11.13;50.88
71043;BME280;58696;52.134;5.500;2023-05-02T09:44:18;102804.81;;;11.73;50.29
71043;BME280;58696;52.134;5.500;2023-05-02T09:46:55;102800.00;;;12.25;51.59
71043;BME280;58696;52.134;5.500;2023-05-02T09:49:44;102808.91;;;12.13;48.35
71043;BME280;58696;52.134;5.500;2023-05-02T09:52:16;102808.75;;;11.68;51.30
71043;BME280;58696;52.134;5.500;2023-05-02T09:54:43;102807.78;;;11.78;50.07
71043;BME280;58696;52.134;5.500;2023-05-02T09:57:12;102807.84;;;12.06;48.60
71043;BME280;58696;52.134;5.500;2023-05-02T09:59:52;102814.13;;;12.21;49.47
71043;BME280;58696;52.134;5.500;2023-05-02T10:02:19;102807.97;;;12.32;49.26
71043;BME280;58696;52.134;5.500;2023-05-02T10:04:47;102807.94;;;12.14;47.41
71043;BME280;58696;52.134;5.500;2023-05-02T10:07:15;102804.78;;;12.20;47.04
71043;BME280;58696;52.134;5.500;2023-05-02T10:09:46;102804.75;;;12.30;47.97
71043;BME280;58696;52.134;5.500;2023-05-02T10:12:17;102806.16;;;12.96;47.25
71043;BME280;58696;52.134;5.500;2023-05-02T10:14:54;102813.00;;;12.87;44.71
71043;BME280;58696;52.134;5.500;2023-05-02T10:17:30;102814.44;;;12.63;47.72
71043;BME280;58696;52.134;5.500;2023-05-02T10:20:05;102816.25;;;12.53;47.91
71043;BME280;58696;52.134;5.500;2023-05-02T10:22:35;102824.06;;;12.44;46.99
71043;BME280;58696;52.134;5.500;2023-05-02T10:25:02;102828.78;;;12.66;46.05
71043;BME280;58696;52.134;5.500;2023-05-02T10:27:31;102834.72;;;12.94;44.92
71043;BME280;58696;52.134;5.500;2023-05-02T10:29:59;102827.97;;;13.19;45.08
71043;BME280;58696;52.134;5.500;2023-05-02T10:32:26;102831.84;;;13.93;47.14
71043;BME280;58696;52.134;5.500;2023-05-02T10:34:56;102842.66;;;13.01;44.60
71043;BME280;58696;52.134;5.500;2023-05-02T10:37:28;102846.06;;;12.38;46.65
71043;BME280;58696;52.134;5.500;2023-05-02T10:40:01;102843.81;;;12.71;45.59
71043;BME280;58696;52.134;5.500;2023-05-02T10:42:35;102845.47;;;13.07;44.60
71043;BME280;58696;52.134;5.500;2023-05-02T10:45:28;102845.97;;;12.75;47.25
71043;BME280;58696;52.134;5.500;2023-05-02T10:48:20;102849.38;;;12.30;45.32
71043;BME280;58696;52.134;5.500;2023-05-02T10:50:49;102837.22;;;12.68;45.57
71043;BME280;58696;52.134;5.500;2023-05-02T10:58:36;102848.78;;;13.18;43.91
71043;BME280;58696;52.134;5.500;2023-05-02T11:06:28;102854.13;;;12.53;45.86
71043;BME280;58696;52.134;5.500;2023-05-02T11:11:54;102865.69;;;12.49;48.68
71043;BME280;58696;52.134;5.500;2023-05-02T11:19:28;102868.06;;;13.23;45.95
71043;BME280;58696;52.134;5.500;2023-05-02T11:24:53;102851.31;;;13.79;44.33
71043;BME280;58696;52.134;5.500;2023-05-02T11:30:02;102861.66;;;12.64;45.79
71043;BME280;58696;52.134;5.500;2023-05-02T11:35:15;102858.59;;;14.18;46.61
71043;BME280;58696;52.134;5.500;2023-05-02T11:38:09;102857.31;;;14.64;46.81
71043;BME280;58696;52.134;5.500;2023-05-02T11:40:36;102858.91;;;14.65;43.60
71043;BME280;58696;52.134;5.500;2023-05-02T11:43:14;102859.47;;;14.01;43.69
71043;BME280;58696;52.134;5.500;2023-05-02T11:45:45;102866.81;;;13.53;43.04
71043;BME280;58696;52.134;5.500;2023-05-02T11:48:17;102860.34;;;14.09;47.81
71043;BME280;58696;52.134;5.500;2023-05-02T11:50:46;102859.66;;;14.41;41.88
71043;BME280;58696;52.134;5.500;2023-05-02T11:53:21;102863.66;;;13.93;45.27
71043;BME280;58696;52.134;5.500;2023-05-02T11:56:02;102864.81;;;13.99;45.56
71043;BME280;58696;52.134;5.500;2023-05-02T11:58:35;102873.06;;;14.45;43.88
71043;BME280;58696;52.134;5.500;2023-05-02T12:01:16;102875.78;;;13.67;43.44
71043;BME280;58696;52.134;5.500;2023-05-02T12:03:43;102882.78;;;13.13;45.12
71043;BME280;58696;52.134;5.500;2023-05-02T12:06:19;102882.31;;;12.82;44.71
71043;BME280;58696;52.134;5.500;2023-05-02T12:08:48;102892.06;;;12.43;44.84
71043;BME280;58696;52.134;5.500;2023-05-02T12:11:15;102888.19;;;12.56;44.97
71043;BME280;58696;52.134;5.500;2023-05-02T12:13:48;102887.13;;;13.12;44.98
71043;BME280;58696;52.134;5.500;2023-05-02T12:16:16;102888.75;;;13.49;46.61
71043;BME280;58696;52.134;5.500;2023-05-02T12:18:43;102898.31;;;13.57;45.56
71043;BME280;58696;52.134;5.500;2023-05-02T12:21:10;102903.28;;;12.79;46.19
71043;BME280;58696;52.134;5.500;2023-05-02T12:23:38;102906.75;;;12.60;45.54
71043;BME280;58696;52.134;5.500;2023-05-02T12:26:21;102909.56;;;13.12;45.59
71043;BME280;58696;52.134;5.500;2023-05-02T12:28:51;102912.03;;;13.57;46.02
71043;BME280;58696;52.134;5.500;2023-05-02T12:31:23;102907.44;;;13.95;43.63
71043;BME280;58696;52.134;5.500;2023-05-02T12:33:55;102914.81;;;13.82;43.07
71043;BME280;58696;52.134;5.500;2023-05-02T12:36:28;102911.75;;;13.42;43.98
71043;BME280;58696;52.134;5.500;2023-05-02T12:39:02;102925.13;;;13.56;42.47
71043;BME280;58696;52.134;5.500;2023-05-02T12:41:37;102920.06;;;13.72;44.51
71043;BME280;58696;52.134;5.500;2023-05-02T12:44:04;102928.56;;;14.16;43.86
71043;BME280;58696;52.134;5.500;2023-05-02T12:46:34;102915.44;;;14.44;44.07
71043;BME280;58696;52.134;5.500;2023-05-02T12:49:02;102911.81;;;14.71;43.95
71043;BME280;58696;52.134;5.500;2023-05-02T12:51:29;102924.44;;;14.66;42.58
71043;BME280;58696;52.134;5.500;2023-05-02T12:53:59;102925.75;;;14.36;45.36
71043;BME280;58696;52.134;5.500;2023-05-02T12:56:38;102931.94;;;14.43;41.76
71043;BME280;58696;52.134;5.500;2023-05-02T12:59:07;102938.44;;;13.69;42.56
71043;BME280;58696;52.134;5.500;2023-05-02T13:01:36;102938.50;;;13.33;42.01
71043;BME280;58696;52.134;5.500;2023-05-02T13:04:06;102932.63;;;13.13;43.95
71043;BME280;58696;52.134;5.500;2023-05-02T13:06:35;102929.75;;;13.70;43.65
71043;BME280;58696;52.134;5.500;2023-05-02T13:09:04;102933.22;;;14.13;44.44
71043;BME280;58696;52.134;5.500;2023-05-02T13:11:35;102932.94;;;13.90;41.89
71043;BME280;58696;52.134;5.500;2023-05-02T13:14:02;102925.38;;;13.97;43.75
71043;BME280;58696;52.134;5.500;2023-05-02T13:16:33;102931.22;;;13.99;42.37
71043;BME280;58696;52.134;5.500;2023-05-02T13:19:04;102933.94;;;13.97;43.69
71043;BME280;58696;52.134;5.500;2023-05-02T13:21:31;102929.84;;;14.12;41.21
71043;BME280;58696;52.134;5.500;2023-05-02T13:23:57;102928.06;;;14.13;45.53
71043;BME280;58696;52.134;5.500;2023-05-02T13:26:26;102923.75;;;14.56;41.62
71043;BME280;58696;52.134;5.500;2023-05-02T13:28:55;102920.28;;;14.97;41.21
71043;BME280;58696;52.134;5.500;2023-05-02T13:31:24;102924.78;;;14.37;39.64
71043;BME280;58696;52.134;5.500;2023-05-02T13:33:56;102938.00;;;14.00;42.87
71043;BME280;58696;52.134;5.500;2023-05-02T13:36:22;102934.13;;;14.30;42.80
71043;BME280;58696;52.134;5.500;2023-05-02T13:38:49;102939.78;;;14.33;41.33
71043;BME280;58696;52.134;5.500;2023-05-02T13:41:16;102929.97;;;14.03;43.44
71043;BME280;58696;52.134;5.500;2023-05-02T13:43:49;102921.25;;;14.46;44.15
71043;BME280;58696;52.134;5.500;2023-05-02T13:46:15;102932.94;;;14.50;43.70
71043;BME280;58696;52.134;5.500;2023-05-02T13:48:42;102924.47;;;14.40;41.14
71043;BME280;58696;52.134;5.500;2023-05-02T13:51:09;102938.09;;;13.90;42.43
71043;BME280;58696;52.134;5.500;2023-05-02T13:53:35;102932.34;;;13.70;43.98
71043;BME280;58696;52.134;5.500;2023-05-02T13:56:04;102936.59;;;13.79;43.67
71043;BME280;58696;52.134;5.500;2023-05-02T13:58:31;102930.44;;;13.80;43.81
71043;BME280;58696;52.134;5.500;2023-05-02T14:01:00;102944.13;;;13.73;44.12
71043;BME280;58696;52.134;5.500;2023-05-02T14:03:29;102936.50;;;13.89;45.06
71043;BME280;58696;52.134;5.500;2023-05-02T14:05:56;102938.28;;;13.88;45.29
71043;BME280;58696;52.134;5.500;2023-05-02T14:08:27;102945.31;;;13.78;42.66